首页
METAR-TAF:

METAR-TAF

机场 :

法布拉, 英格兰

纬度: 51-17N, 经度: 000-46W, 海拔: 65米

当前天气观测

该预报发布于37分钟前的07:20 UTC
风速6节,风向西
温度 8°C
湿度 81%
气压 1017 hPa
能见度10公里或以上
多云层高于3400英尺

METAR: EGLF 030720Z AUTO 26006KT 9999 BKN034 08/05 Q1017

时间: 08:57 (07:57 UTC)

预报

该预报发布于2小时和59分钟前的04:58 UTC
预报有效从03日的 06点(UTC)到 03日的 15点(UTC)
风速6节,风向西
能见度10公里或以上
散云层高于2500英尺

TAF: EGLF 030458Z 0306/0315 28006KT 9999 SCT025

超过4000个机场的气象观测和天气预报(METAR&TAF报告)。

可查询的气象台以黄色和红色小点在地图上表示。

将鼠标移到小点上方,可查看气象台名称。

然后点击查看天气观测和预报。

如需切换地图:点击带黑十字的绿色按钮放大地图;点击带横线的绿色按钮缩小地图;或者点击绿色箭头查看邻近地区的地图。


METAR-TAF: